• Join FlightAware (Why Join?)
  • Login
  • US Flag 
01:10AM EDT


 

Airport Tracker/Info


-or-


 

Live Flight TrackerFlight Track Log ✈ UAL481 ✈ 20-Jun-2013 ✈ KALB - KORD

Flight Track Log - Related Links

Times and Time Zones

All times are in EDT time to prevent confusion due to time zone crossing. See the UAL481 flight status page for this flight to view local times or setup timezone preferences in your user account.

Time Position Orientation Groundspeed Altitude Reporting Facility
EDT Latitude Longitude Course Direction KTS MPH feet Rate Location/Type
06:09PM 42.7236 -73.8050 324° Northwest 147 169 1,400  Level Boston Center
06:10PM 42.6961 -73.8383 222° Southwest 192 221 2,900 2,280 Climbing Boston Center
06:11PM 42.7369 -73.9128 307° West 261 300 5,900 3,000 Climbing Boston Center
06:13PM 42.8067 -73.9908 321° Northwest 261 300 10,200 2,640 Climbing Boston Center
06:14PM 42.8619 -74.0547 320° Northwest 272 313 12,300 2,940 Climbing Boston Center
06:15PM 42.8820 -74.5487 324° Northwest  Level FlightAware Approximate
06:15PM 42.9439 -74.1503 320° Northwest 317 365 16,100  Level Boston Center
06:16PM 42.9903 -74.2511 302° West 317 365 18,400 2,220 Climbing Boston Center
06:17PM 42.9989 -74.3706 276° West 317 365 20,600 1,980 Climbing Boston Center
06:18PM 43.0111 -74.4986 277° West 330 380 22,400 1,680 Climbing Boston Center
06:19PM 43.0253 -74.6356 278° West 353 406 24,300 1,920 Climbing Boston Center
06:20PM 43.0408 -74.8036 277° West 368 423 26,700 1,920 Climbing Boston Center
06:21PM 43.0544 -74.9436 278° West 373 429 28,200 1,440 Climbing Boston Center
06:22PM 43.0658 -75.0889 276° West 379 436 29,600 1,260 Climbing Boston Center
06:23PM 43.0767 -75.2400 276° West 392 451 30,800 1,200 Climbing Boston Center
06:24PM 43.0917 -75.3944 278° West 402 463 32,000 1,260 Climbing Boston Center
06:25PM 43.1058 -75.5628 277° West 413 475 33,400 1,440 Climbing Boston Center
06:26PM 43.1203 -75.7172 277° West 413 475 34,900 780 Climbing Boston Center
06:27PM 43.1325 -75.8658 276° West 406 467 35,000 120 Climbing Boston Center
06:28PM 43.1447 -76.0147 276° West 406 467 35,200 720 Climbing Boston Center
06:29PM 43.1586 -76.1633 277° West 406 467 36,500 960 Climbing Boston Center
06:30PM 43.1597 -76.3933 270° West 389 448 37,900 540 Climbing Cleveland Center
06:31PM 43.1608 -76.5414 271° West 389 448 38,000  Climbing Cleveland Center
06:32PM 43.1597 -76.6922 269° West 389 448 38,000  Level Cleveland Center
06:33PM 43.1583 -76.8375 269° West 389 448 38,000  Level Cleveland Center
06:34PM 43.1589 -76.9883 270° West 389 448 38,000  Level Cleveland Center
06:35PM 43.1572 -77.1367 269° West 389 448 38,000  Level Cleveland Center
06:36PM 43.1572 -77.2844 270° West 389 448 38,000  Level Cleveland Center
06:37PM 43.1553 -77.4383 269° West 394 453 38,000  Level Cleveland Center
06:38PM 43.1553 -77.5922 270° West 404 465 38,000  Level Cleveland Center
06:39PM 43.1508 -77.7461 268° West 404 465 38,000  Level Cleveland Center
06:40PM 43.1503 -77.8997 270° West 404 465 38,000  Level Cleveland Center
06:41PM 43.1475 -78.0536 269° West 404 465 38,000  Level Cleveland Center
06:42PM 43.1464 -78.2072 269° West 404 465 38,000  Level Cleveland Center
06:43PM 43.1436 -78.3808 269° West 414 476 38,000  Level Cleveland Center
06:44PM 43.1383 -78.5375 267° West 414 476 38,000  Level Cleveland Center
06:45PM 43.1325 -78.6942 267° West 414 476 38,000  Level Cleveland Center
06:46PM 43.1308 -78.8536 269° West 419 482 38,000  Level Cleveland Center
06:47PM 43.1247 -79.0103 267° West 419 482 38,000  Level Cleveland Center
06:48PM 43.1186 -79.1697 267° West 419 482 38,000 -600 Level Cleveland Center
06:50PM 43.1000 -79.3333 261° West 410 472 36,700 -1,140 Descending Toronto Center
06:51PM 43.1000 -79.5000 270° West 420 483 35,500 -1,260 Descending Toronto Center
06:52PM 43.1000 -79.6500 270° West 410 472 34,200 -1,200 Descending Toronto Center
06:53PM 43.0833 -79.8000 261° West 400 460 33,100 -1,080 Descending Toronto Center
06:54PM 43.0833 -79.9500 270° West 410 472 32,100 -600 Descending Toronto Center
06:55PM 43.0667 -80.1167 262° West 410 472 32,000 -60 Descending Toronto Center
06:56PM 43.0667 -80.2667 270° West 420 483 32,000  Level Toronto Center
06:57PM 43.0667 -80.4333 270° West 410 472 32,000  Level Toronto Center
06:58PM 43.0500 -80.5833 261° West 420 483 32,000  Level Toronto Center
06:59PM 43.0500 -80.7500 270° West 410 472 32,000  Level Toronto Center
07:00PM 43.0333 -80.8833 260° West 410 472 32,000  Level Toronto Center
07:01PM 43.0167 -81.0667 263° West 420 483 32,000  Level Toronto Center
07:02PM 43.0167 -81.2000 270° West 420 483 32,000  Level Toronto Center
07:03PM 43.0167 -81.3667 270° West 410 472 32,000  Level Toronto Center
07:04PM 43.0167 -81.5333 270° West 410 472 32,000  Level Toronto Center
07:05PM 43.0167 -81.6833 270° West 420 483 32,000  Level Toronto Center
07:06PM 43.0167 -81.8500 270° West 420 483 32,000  Level Toronto Center
07:07PM 43.0000 -82.0000 261° West 420 483 32,000  Level Toronto Center
07:08PM 43.0000 -82.1667 270° West 420 483 32,000  Level Toronto Center
07:09PM 43.0000 -82.3167 270° West 420 483 32,000 -240 Level Toronto Center
07:10PM 43.0000 -82.4833 270° West 420 483 31,600 -720 Descending Toronto Center
07:11PM 42.9833 -82.6500 262° West 420 483 30,600 -900 Descending Toronto Center
07:11PM 42.9981 -82.7689 280° West 424 488 30,000 -360 Descending Cleveland Center
07:12PM 42.9928 -82.9306 267° West 424 488 30,000  Level Cleveland Center
07:13PM 42.9894 -83.0922 268° West 424 488 30,000  Level Cleveland Center
07:14PM 42.9814 -83.2567 266° West 424 488 30,000  Level Cleveland Center
07:15PM 42.9778 -83.4183 268° West 429 494 30,000  Level Cleveland Center
07:16PM 42.9714 -83.5853 267° West 434 499 30,000 -600 Level Cleveland Center
07:17PM 42.9647 -83.7525 267° West 441 507 28,800 -1,020 Descending Cleveland Center
07:18PM 42.9500 -83.9106 263° West 435 501 28,000 -420 Descending Cleveland Center
07:19PM 42.9347 -84.0686 263° West 430 495 28,000  Level Cleveland Center
07:20PM 42.9197 -84.2236 263° West 425 489 28,000  Level Cleveland Center
07:22PM 42.9011 -84.4144 262° West 424 488 28,000  Level Chicago Center
07:23PM 42.8850 -84.5728 262° West 423 487 28,000  Level Chicago Center
07:24PM 42.8675 -84.7319 262° West 426 490 28,000  Level Chicago Center
07:25PM 42.8506 -84.8928 262° West 429 494 28,000  Level Chicago Center
07:26PM 42.8347 -85.0531 262° West 429 494 28,000 -480 Level Chicago Center
07:27PM 42.8136 -85.2456 262° West 429 494 27,100 -960 Descending Chicago Center
07:28PM 42.7969 -85.4006 262° West 418 481 26,100 -840 Descending Chicago Center
07:29PM 42.7769 -85.5544 260° West 412 474 25,400 -540 Descending Chicago Center
07:30PM 42.7483 -85.7047 256° West 410 472 25,100 -780 Descending Chicago Center
07:31PM 42.7211 -85.8547 256° West 407 468 23,900 -1,380 Descending Chicago Center
07:32PM 42.6947 -86.0003 256° West 399 459 22,300 -1,560 Descending Chicago Center
07:33PM 42.6686 -86.1422 256° West 389 448 20,700 -1,140 Descending Chicago Center
07:34PM 42.6383 -86.3094 256° West 381 438 20,000 -420 Descending Chicago Center
07:35PM 42.6119 -86.4458 255° West 377 434 19,900 -1,080 Descending Chicago Center
07:36PM 42.5869 -86.5811 256° West 372 428 17,900 -1,980 Descending Chicago Center
07:37PM 42.5631 -86.7117 256° West 359 413 15,900 -2,040 Descending Chicago Center
07:38PM 42.5300 -86.8358 250° West 354 407 13,800 -2,040 Descending Chicago Center
07:39PM 42.4972 -86.9572 250° West 345 397 11,700 -1,920 Descending Chicago Center
07:40PM 42.4567 -87.0975 249° West 336 387 9,900 -840 Descending Chicago Center
07:41PM 42.4247 -87.2128 249° West 330 380 10,000 -420 Climbing Chicago Center
07:42PM 42.3978 -87.3142 250° West 296 341 9,100 -900 Descending Chicago Center
07:43PM 42.3669 -87.4094 246° West 283 326 8,200 -1,080 Descending Chicago Center
07:44PM 42.3297 -87.5181 245° Southwest 273 314 6,900 -600 Descending Chicago Center
07:45PM 42.2736 -87.5869 222° Southwest 267 307 7,000 -240 Climbing Chicago Center
07:46PM 42.2169 -87.6533 221° Southwest 268 308 6,500 -960 Descending Chicago Center
07:47PM 42.1606 -87.7167 220° Southwest 265 305 5,100 -1,380 Descending Chicago Center